Thamesteel1 — V7OI7 — position and weather

sailwx.info

Track history (hours):
 
Tides and Currents Weather Stations Pressure Air Temp Water Temp Dewpoint Dewpoint Depression Visibility Wind Speed Wind Dir Waves Ship Positions

Thamesteel1

Last reported at 2017-Mar-22 23:32 UTC. Time now 2017-Mar-23 00:16 UTC.
Position N 42°25' W 070°45'.

Length 89 m; draft 4.8 m.

Type: Cargo ship. MMSI: 538003096.

Date/timePositionNaut miles runAvg speedWind from/ knotsBaromVisibWave heightAir tempDewpointWater temp
2017-Mar-22 23:32N 42°25' W 070°45'0 0.0
2017-Mar-22 22:32N 42°25' W 070°45'0 0.0
2017-Mar-22 21:32N 42°25' W 070°45'0 0.0
2017-Mar-22 20:32N 42°25' W 070°45'0 0.0
2017-Mar-22 19:32N 42°25' W 070°45'0 0.0
2017-Mar-22 18:32N 42°25' W 070°45'0 0.0
2017-Mar-22 17:32N 42°25' W 070°45'0 0.0
2017-Mar-22 16:32N 42°25' W 070°45'0 0.0
2017-Mar-22 15:32N 42°25' W 070°45'0 0.0
2017-Mar-22 14:32N 42°25' W 070°45'0 0.0
2017-Mar-22 13:32N 42°25' W 070°45'0 0.1
2017-Mar-22 12:32N 42°25' W 070°45'0 0.0
2017-Mar-22 11:32N 42°25' W 070°45'0 0.0
2017-Mar-22 10:32N 42°25' W 070°45'0 0.0
2017-Mar-22 09:32N 42°25' W 070°45'0 0.2
2017-Mar-22 08:32N 42°25' W 070°46'0 0.1
2017-Mar-22 07:32N 42°25' W 070°46'0 0.1
2017-Mar-22 06:32N 42°25' W 070°46'0 0.2
2017-Mar-22 05:32N 42°25' W 070°45'0 0.0
2017-Mar-22 04:32N 42°25' W 070°45'0 0.0
2017-Mar-22 03:32N 42°25' W 070°45'0 0.0
2017-Mar-22 02:32N 42°25' W 070°45'0 0.3
2017-Mar-22 01:32N 42°25' W 070°46'0 0.0
2017-Mar-22 00:32N 42°25' W 070°46'0 0.1
2017-Mar-21 23:32N 42°25' W 070°46'0 0.0
2017-Mar-21 22:32N 42°25' W 070°46'0 0.0
2017-Mar-21 21:32N 42°25' W 070°46'0 0.0
2017-Mar-21 20:32N 42°25' W 070°46'0 0.0
2017-Mar-21 19:32N 42°25' W 070°46'0 0.0
2017-Mar-21 18:32N 42°25' W 070°46'0 0.0
2017-Mar-21 17:32N 42°25' W 070°46'0 0.0
2017-Mar-21 16:32N 42°25' W 070°46'0 0.0
2017-Mar-21 15:32N 42°25' W 070°46'0 0.0
2017-Mar-21 14:32N 42°25' W 070°46'0 0.0
2017-Mar-21 13:32N 42°25' W 070°46'0 0.0
2017-Mar-21 12:32N 42°25' W 070°46'0 0.0
2017-Mar-21 11:32N 42°25' W 070°46'0 0.0
2017-Mar-21 10:32N 42°25' W 070°46'0 0.0
2017-Mar-21 09:32N 42°25' W 070°46'0 0.0
2017-Mar-21 08:32N 42°25' W 070°46'0 0.0
2017-Mar-21 07:32N 42°25' W 070°46'0 0.0
2017-Mar-21 06:32N 42°25' W 070°46'0 0.0
2017-Mar-21 05:32N 42°25' W 070°46'0 0.0
2017-Mar-21 04:32N 42°25' W 070°46'0 0.0
2017-Mar-21 03:32N 42°25' W 070°46'0 0.1
2017-Mar-21 02:32N 42°25' W 070°46'0 0.1
2017-Mar-21 01:32N 42°25' W 070°46'0 0.0
2017-Mar-21 00:32N 42°25' W 070°46'0 0.0
2017-Mar-20 23:32N 42°25' W 070°46'0 0.0
2017-Mar-20 22:32N 42°25' W 070°46'0 0.0
2017-Mar-20 21:32N 42°25' W 070°46'0 0.0
2017-Mar-20 20:32N 42°25' W 070°46'0 0.0
2017-Mar-20 19:32N 42°25' W 070°46'0 0.0
2017-Mar-20 18:32N 42°25' W 070°46'0 0.0
2017-Mar-20 17:32N 42°25' W 070°46'0 0.0
2017-Mar-20 16:33N 42°25' W 070°46'0 0.1
2017-Mar-20 15:33N 42°25' W 070°46'0 0.3
2017-Mar-20 14:33N 42°25' W 070°46'0 0.0
2017-Mar-20 13:33N 42°25' W 070°46'0 0.0
2017-Mar-20 12:33N 42°25' W 070°46'0 0.0
2017-Mar-20 11:33N 42°25' W 070°46'0 0.0
2017-Mar-20 10:30N 42°25' W 070°46'0 0.0
2017-Mar-20 09:33N 42°25' W 070°46'0 0.0
2017-Mar-20 08:33N 42°25' W 070°46'0 0.0
2017-Mar-20 07:33N 42°25' W 070°46'0 0.0
2017-Mar-20 06:33N 42°25' W 070°46'0 0.0
2017-Mar-20 05:33N 42°25' W 070°46'0 0.1
2017-Mar-20 04:33N 42°25' W 070°46'0 0.0
2017-Mar-20 03:33N 42°25' W 070°46'0 0.0
2017-Mar-20 02:33N 42°25' W 070°46'0 0.0
2017-Mar-20 01:33N 42°25' W 070°46'0 0.1
2017-Mar-20 00:32N 42°25' W 070°46'0 0.0
2017-Mar-19 23:32N 42°25' W 070°46'0 0.0
2017-Mar-19 22:32N 42°25' W 070°46'0 0.2
2017-Mar-19 21:33N 42°25' W 070°45'6 5.9
2017-Mar-19 20:34N 42°22' W 070°38'8 8.3
2017-Mar-19 19:33N 42°21' W 070°27'9 9.2
2017-Mar-19 18:33N 42°20' W 070°15'10 9.6
2017-Mar-19 17:33N 42°19' W 070°02'  
Track history (hours):
 
Tides and Currents Weather Stations Pressure Air Temp Water Temp Dewpoint Dewpoint Depression Visibility Wind Speed Wind Dir Waves Ship Positions

Thamesteel1

Last reported at 2017-Mar-22 23:32 UTC. Time now 2017-Mar-23 00:16 UTC.
Position N 42°25' W 070°45'.

Length 89 m; draft 4.8 m.

Type: Cargo ship. MMSI: 538003096.

Date/timePositionNaut miles runAvg speedWind from/ knotsBaromVisibWave heightAir tempDewpointWater temp
2017-Mar-22 23:32N 42°25' W 070°45'0 0.0
2017-Mar-22 22:32N 42°25' W 070°45'0 0.0
2017-Mar-22 21:32N 42°25' W 070°45'0 0.0
2017-Mar-22 20:32N 42°25' W 070°45'0 0.0
2017-Mar-22 19:32N 42°25' W 070°45'0 0.0
2017-Mar-22 18:32N 42°25' W 070°45'0 0.0
2017-Mar-22 17:32N 42°25' W 070°45'0 0.0
2017-Mar-22 16:32N 42°25' W 070°45'0 0.0
2017-Mar-22 15:32N 42°25' W 070°45'0 0.0
2017-Mar-22 14:32N 42°25' W 070°45'0 0.0
2017-Mar-22 13:32N 42°25' W 070°45'0 0.1
2017-Mar-22 12:32N 42°25' W 070°45'0 0.0
2017-Mar-22 11:32N 42°25' W 070°45'0 0.0
2017-Mar-22 10:32N 42°25' W 070°45'0 0.0
2017-Mar-22 09:32N 42°25' W 070°45'0 0.2
2017-Mar-22 08:32N 42°25' W 070°46'0 0.1
2017-Mar-22 07:32N 42°25' W 070°46'0 0.1
2017-Mar-22 06:32N 42°25' W 070°46'0 0.2
2017-Mar-22 05:32N 42°25' W 070°45'0 0.0
2017-Mar-22 04:32N 42°25' W 070°45'0 0.0
2017-Mar-22 03:32N 42°25' W 070°45'0 0.0
2017-Mar-22 02:32N 42°25' W 070°45'0 0.3
2017-Mar-22 01:32N 42°25' W 070°46'0 0.0
2017-Mar-22 00:32N 42°25' W 070°46'0 0.1
2017-Mar-21 23:32N 42°25' W 070°46'0 0.0
2017-Mar-21 22:32N 42°25' W 070°46'0 0.0
2017-Mar-21 21:32N 42°25' W 070°46'0 0.0
2017-Mar-21 20:32N 42°25' W 070°46'0 0.0
2017-Mar-21 19:32N 42°25' W 070°46'0 0.0
2017-Mar-21 18:32N 42°25' W 070°46'0 0.0
2017-Mar-21 17:32N 42°25' W 070°46'0 0.0
2017-Mar-21 16:32N 42°25' W 070°46'0 0.0
2017-Mar-21 15:32N 42°25' W 070°46'0 0.0
2017-Mar-21 14:32N 42°25' W 070°46'0 0.0
2017-Mar-21 13:32N 42°25' W 070°46'0 0.0
2017-Mar-21 12:32N 42°25' W 070°46'0 0.0
2017-Mar-21 11:32N 42°25' W 070°46'0 0.0
2017-Mar-21 10:32N 42°25' W 070°46'0 0.0
2017-Mar-21 09:32N 42°25' W 070°46'0 0.0
2017-Mar-21 08:32N 42°25' W 070°46'0 0.0
2017-Mar-21 07:32N 42°25' W 070°46'0 0.0
2017-Mar-21 06:32N 42°25' W 070°46'0 0.0
2017-Mar-21 05:32N 42°25' W 070°46'0 0.0
2017-Mar-21 04:32N 42°25' W 070°46'0 0.0
2017-Mar-21 03:32N 42°25' W 070°46'0 0.1
2017-Mar-21 02:32N 42°25' W 070°46'0 0.1
2017-Mar-21 01:32N 42°25' W 070°46'0 0.0
2017-Mar-21 00:32N 42°25' W 070°46'0 0.0
2017-Mar-20 23:32N 42°25' W 070°46'0 0.0
2017-Mar-20 22:32N 42°25' W 070°46'0 0.0
2017-Mar-20 21:32N 42°25' W 070°46'0 0.0
2017-Mar-20 20:32N 42°25' W 070°46'0 0.0
2017-Mar-20 19:32N 42°25' W 070°46'0 0.0
2017-Mar-20 18:32N 42°25' W 070°46'0 0.0
2017-Mar-20 17:32N 42°25' W 070°46'0 0.0
2017-Mar-20 16:33N 42°25' W 070°46'0 0.1
2017-Mar-20 15:33N 42°25' W 070°46'0 0.3
2017-Mar-20 14:33N 42°25' W 070°46'0 0.0
2017-Mar-20 13:33N 42°25' W 070°46'0 0.0
2017-Mar-20 12:33N 42°25' W 070°46'0 0.0
2017-Mar-20 11:33N 42°25' W 070°46'0 0.0
2017-Mar-20 10:30N 42°25' W 070°46'0 0.0
2017-Mar-20 09:33N 42°25' W 070°46'0 0.0
2017-Mar-20 08:33N 42°25' W 070°46'0 0.0
2017-Mar-20 07:33N 42°25' W 070°46'0 0.0
2017-Mar-20 06:33N 42°25' W 070°46'0 0.0
2017-Mar-20 05:33N 42°25' W 070°46'0 0.1
2017-Mar-20 04:33N 42°25' W 070°46'0 0.0
2017-Mar-20 03:33N 42°25' W 070°46'0 0.0
2017-Mar-20 02:33N 42°25' W 070°46'0 0.0
2017-Mar-20 01:33N 42°25' W 070°46'0 0.1
2017-Mar-20 00:32N 42°25' W 070°46'0 0.0
2017-Mar-19 23:32N 42°25' W 070°46'0 0.0
2017-Mar-19 22:32N 42°25' W 070°46'0 0.2
2017-Mar-19 21:33N 42°25' W 070°45'6 5.9
2017-Mar-19 20:34N 42°22' W 070°38'8 8.3
2017-Mar-19 19:33N 42°21' W 070°27'9 9.2
2017-Mar-19 18:33N 42°20' W 070°15'10 9.6
2017-Mar-19 17:33N 42°19' W 070°02'  

Dump ship's entire track history